Portada
METAR-TAF:

METAR-TAF

Aeroports :

Kuala Lumpur, Malàisia

latitud: 02-44N, longitud: 101-42E, altitud: 21 m

Observació

L'informe es va fer fa 44 minuts, a les 11:00 UTC
Vent calma
Temperatura 28°C
Humitat 89%
Pressió 1008 hPa
Visibilitat 10 km o més
Escasses núvols a una alçada de 3000 ft

METAR: WMKK 241100Z 00000KT 9999 FEW030 28/26 Q1008 NOSIG

Hora: 19:44 (11:44 UTC)

Pronòstic

L'informe es va fer fa 44 minuts, a les 11:00 UTC
Pronòstic vàlid del 24 a les 12 UTC al 25 a les 18 UTC
Vent 3 kt amb direcció variable
Visibilitat 10 km o més
Escasses núvols a una alçada de 3000 ft
Temporalment
l' 24 a les 18 UTC al 24 a les 23 UTC
Vent 7 kt del Oest amb ràfegues de 18 kt
Visibilitat: 4000 m
Escasses núvols a una alçada de 800 ft
Escasses núvols a una alçada de 1600 ft, Cumulonimbus.
Núvols disperses a una alçada de 2000 ft
tempesta, pluja

TAF: WMKK 241100Z 2412/2518 VRB03KT 9999 FEW030 TEMPO 2418/2423 27007G18KT 4000 TSRA FEW008 FEW016CB SCT020

Observacions i pronòstics meteorològics de més de 4000 aeroports (METAR i TAF).

Les estacions disponibles són els punts grocs i vermells al mapa.

Posi el ratolí al punt desitjat per veure el nom de l'estació.

Feu clic per veure les observacions i els pronòstics meteorològics.

Per canviar el mapa: feu clic els botons verds amb una creu de color negre per apropar; al botó verd amb un guió per allunyar la imatge; o en les fletxes verdes per a mapes adjacents.


METAR-TAF: